createdAt,value
2023-11-23T00:00:02.884Z,1019.7
2023-11-23T00:01:04.114Z,1019.7
2023-11-23T00:02:05.433Z,1019.7
2023-11-23T00:03:06.749Z,1019.7
2023-11-23T00:04:08.199Z,1019.7
2023-11-23T00:05:09.370Z,1019.6
2023-11-23T00:06:10.704Z,1019.6
2023-11-23T00:07:11.834Z,1019.5
2023-11-23T00:08:15.913Z,1019.5
2023-11-23T00:09:17.207Z,1019.5
2023-11-23T00:10:18.442Z,1019.5
2023-11-23T00:11:19.671Z,1019.4
2023-11-23T00:12:20.883Z,1019.4
2023-11-23T00:13:22.156Z,1019.4
2023-11-23T00:14:23.464Z,1019.5
2023-11-23T00:15:24.711Z,1019.5
2023-11-23T00:16:25.963Z,1019.4
2023-11-23T00:17:27.166Z,1019.5
2023-11-23T00:18:28.443Z,1019.4
2023-11-23T00:19:29.658Z,1019.4
2023-11-23T00:20:30.982Z,1019.4
2023-11-23T00:21:32.197Z,1019.3
2023-11-23T00:22:33.415Z,1019.3
2023-11-23T00:23:34.996Z,1019.4
2023-11-23T00:24:36.288Z,1019.4
2023-11-23T00:25:37.582Z,1019.3
2023-11-23T00:26:38.852Z,1019.3
2023-11-23T00:27:40.139Z,1019.3
2023-11-23T00:28:41.429Z,1019.4
2023-11-23T00:29:42.688Z,1019.3
2023-11-23T00:30:43.865Z,1019.3
2023-11-23T00:31:45.116Z,1019.2
2023-11-23T00:32:46.541Z,1019.2
2023-11-23T00:33:47.833Z,1019.2
2023-11-23T00:34:49.151Z,1019.2
2023-11-23T00:35:50.280Z,1019.1
2023-11-23T00:36:51.490Z,1019.2
2023-11-23T00:37:52.688Z,1019.1
2023-11-23T00:38:54.022Z,1019.1
2023-11-23T00:39:55.171Z,1019.1
2023-11-23T00:40:56.598Z,1019.1
2023-11-23T00:41:57.873Z,1019.1
2023-11-23T00:42:59.169Z,1019.1
2023-11-23T00:44:00.580Z,1019.2
2023-11-23T00:45:01.889Z,1019.1
2023-11-23T00:46:03.141Z,1019.2
2023-11-23T00:47:04.360Z,1019.2
2023-11-23T00:48:05.676Z,1019.2
2023-11-23T00:49:07.027Z,1019.2
2023-11-23T00:50:08.265Z,1019.2
2023-11-23T00:51:09.508Z,1019.2
2023-11-23T00:52:10.662Z,1019.1
2023-11-23T00:53:11.881Z,1019.1
2023-11-23T00:54:13.240Z,1019.1
2023-11-23T00:55:14.703Z,1019.1
2023-11-23T00:56:15.922Z,1019.1
2023-11-23T00:57:17.296Z,1019.1
2023-11-23T00:58:18.414Z,1019.1
2023-11-23T00:59:19.712Z,1019
2023-11-23T01:00:21.095Z,1019.1
2023-11-23T01:01:22.451Z,1019
2023-11-23T01:02:23.697Z,1019
2023-11-23T01:03:25.072Z,1019.1
2023-11-23T01:04:26.221Z,1019
2023-11-23T01:05:27.449Z,1019
2023-11-23T01:06:28.696Z,1018.9
2023-11-23T01:07:29.930Z,1018.9
2023-11-23T01:08:31.297Z,1018.9
2023-11-23T01:09:32.540Z,1018.9
2023-11-23T01:10:33.881Z,1018.9
2023-11-23T01:11:35.150Z,1018.9
2023-11-23T01:12:36.339Z,1018.9
2023-11-23T01:13:37.619Z,1018.8
2023-11-23T01:14:38.936Z,1018.8
2023-11-23T01:15:40.071Z,1018.8
2023-11-23T01:16:41.264Z,1018.8
2023-11-23T01:17:42.627Z,1018.7
2023-11-23T01:18:43.773Z,1018.8
2023-11-23T01:19:45.015Z,1018.8
2023-11-23T01:20:46.372Z,1018.8
2023-11-23T01:21:47.560Z,1018.8
2023-11-23T01:22:48.751Z,1018.7
2023-11-23T01:23:50.142Z,1018.7
2023-11-23T01:24:51.292Z,1018.7
2023-11-23T01:25:52.532Z,1018.8
2023-11-23T01:26:53.802Z,1018.8
2023-11-23T01:27:55.180Z,1018.7
2023-11-23T01:28:56.396Z,1018.7
2023-11-23T01:29:57.686Z,1018.8
2023-11-23T01:30:58.864Z,1018.7
2023-11-23T01:32:00.130Z,1018.8
2023-11-23T01:33:01.553Z,1018.7
2023-11-23T01:34:02.899Z,1018.7
2023-11-23T01:35:04.239Z,1018.7
2023-11-23T01:36:05.566Z,1018.7
2023-11-23T01:37:06.775Z,1018.7
2023-11-23T01:38:08.038Z,1018.7
2023-11-23T01:39:09.421Z,1018.5
2023-11-23T01:40:10.525Z,1018.6
2023-11-23T01:41:11.722Z,1018.6
2023-11-23T01:42:12.956Z,1018.6
2023-11-23T01:44:34.489Z,1018.6
2023-11-23T01:45:35.773Z,1018.6
2023-11-23T01:46:36.874Z,1018.6
2023-11-23T01:47:38.128Z,1018.6
2023-11-23T01:48:39.378Z,1018.6
2023-11-23T01:49:40.522Z,1018.6
2023-11-23T01:50:41.970Z,1018.6
2023-11-23T01:51:43.065Z,1018.7
2023-11-23T01:52:44.321Z,1018.7
2023-11-23T01:53:45.633Z,1018.7
2023-11-23T01:54:46.995Z,1018.7
2023-11-23T01:55:48.253Z,1018.7
2023-11-23T01:56:49.550Z,1018.8
2023-11-23T01:57:50.788Z,1018.8
2023-11-23T01:58:52.036Z,1018.7
2023-11-23T01:59:53.348Z,1018.8
2023-11-23T02:00:54.863Z,1018.8
2023-11-23T02:01:55.994Z,1018.8
2023-11-23T02:02:57.230Z,1018.8
2023-11-23T02:03:58.457Z,1018.8
2023-11-23T02:04:59.704Z,1018.8
2023-11-23T02:06:00.963Z,1018.8
2023-11-23T02:07:02.386Z,1018.7
2023-11-23T02:08:03.866Z,1018.7
2023-11-23T02:09:05.181Z,1018.8
2023-11-23T02:10:06.332Z,1018.8
2023-11-23T02:11:07.765Z,1018.7
2023-11-23T02:12:09.149Z,1018.8
2023-11-23T02:13:10.271Z,1018.7
2023-11-23T02:14:11.464Z,1018.8
2023-11-23T02:15:12.715Z,1018.8
2023-11-23T02:16:14.155Z,1018.8
2023-11-23T02:17:15.560Z,1018.8
2023-11-23T02:18:16.934Z,1018.8
2023-11-23T02:19:18.086Z,1018.8
2023-11-23T02:20:19.373Z,1018.7
2023-11-23T02:21:20.687Z,1018.7
2023-11-23T02:22:21.926Z,1018.7
2023-11-23T02:23:23.123Z,1018.7
2023-11-23T02:24:24.599Z,1018.7
2023-11-23T02:25:25.799Z,1018.7
2023-11-23T02:26:27.009Z,1018.6
2023-11-23T02:27:28.228Z,1018.6
2023-11-23T02:28:29.467Z,1018.6
2023-11-23T02:29:30.709Z,1018.6
2023-11-23T02:30:31.941Z,1018.7
2023-11-23T02:31:33.692Z,1018.7
2023-11-23T02:32:34.964Z,1018.7
2023-11-23T02:33:36.191Z,1018.7
2023-11-23T02:34:37.365Z,1018.7
2023-11-23T02:35:38.570Z,1018.6
2023-11-23T02:36:39.798Z,1018.6
2023-11-23T02:37:41.008Z,1018.6
2023-11-23T02:38:42.236Z,1018.6
2023-11-23T02:39:43.422Z,1018.7
2023-11-23T02:40:44.618Z,1018.7
2023-11-23T02:41:45.984Z,1018.6
2023-11-23T02:42:47.139Z,1018.6
2023-11-23T02:43:48.324Z,1018.6
2023-11-23T02:44:49.604Z,1018.6
2023-11-23T02:45:50.786Z,1018.6
2023-11-23T02:46:52.000Z,1018.6
2023-11-23T02:47:53.300Z,1018.6
2023-11-23T02:48:54.480Z,1018.6
2023-11-23T02:49:55.731Z,1018.6
2023-11-23T02:50:56.936Z,1018.6
2023-11-23T02:51:58.217Z,1018.6
2023-11-23T02:52:59.417Z,1018.6
2023-11-23T02:54:00.685Z,1018.6
2023-11-23T02:55:01.954Z,1018.6
2023-11-23T02:56:03.145Z,1018.6
2023-11-23T02:57:04.480Z,1018.6
2023-11-23T02:58:05.747Z,1018.6
2023-11-23T02:59:07.150Z,1018.6
2023-11-23T03:00:11.727Z,1018.6
2023-11-23T03:01:12.845Z,1018.6
2023-11-23T03:02:14.129Z,1018.6
2023-11-23T03:03:15.598Z,1018.6
2023-11-23T03:04:16.710Z,1018.6
2023-11-23T03:05:17.928Z,1018.5
2023-11-23T03:06:19.238Z,1018.5
2023-11-23T03:07:20.420Z,1018.5
2023-11-23T03:08:21.646Z,1018.5
2023-11-23T03:09:22.904Z,1018.5
2023-11-23T03:10:24.251Z,1018.5
2023-11-23T03:11:25.486Z,1018.5
2023-11-23T03:12:26.689Z,1018.5
2023-11-23T03:13:27.933Z,1018.5
2023-11-23T03:14:29.133Z,1018.5
2023-11-23T03:15:30.328Z,1018.5
2023-11-23T03:16:31.567Z,1018.4
2023-11-23T03:17:32.941Z,1018.4
2023-11-23T03:18:34.124Z,1018.4
2023-11-23T03:19:35.247Z,1018.4
2023-11-23T03:20:36.692Z,1018.4
2023-11-23T03:21:37.993Z,1018.4
2023-11-23T03:22:39.150Z,1018.4
2023-11-23T03:23:40.399Z,1018.4
2023-11-23T03:24:41.640Z,1018.4
2023-11-23T03:25:42.846Z,1018.4
2023-11-23T03:26:44.085Z,1018.5
2023-11-23T03:27:45.265Z,1018.5
2023-11-23T03:28:46.495Z,1018.5
2023-11-23T03:29:47.819Z,1018.5
2023-11-23T03:30:49.040Z,1018.5
2023-11-23T03:31:50.219Z,1018.5
2023-11-23T03:32:51.559Z,1018.4
2023-11-23T03:33:52.774Z,1018.4
2023-11-23T03:34:54.036Z,1018.4
2023-11-23T03:35:55.287Z,1018.4
2023-11-23T03:36:56.439Z,1018.4
2023-11-23T03:37:57.676Z,1018.3
2023-11-23T03:38:58.949Z,1018.3
2023-11-23T03:40:00.106Z,1018.3
2023-11-23T03:41:01.344Z,1018.4
2023-11-23T03:42:02.775Z,1018.3
2023-11-23T03:43:03.856Z,1018.3
2023-11-23T03:44:05.172Z,1018.3
2023-11-23T03:45:06.398Z,1018.3
2023-11-23T03:46:07.646Z,1018.3
2023-11-23T03:47:08.837Z,1018.3
2023-11-23T03:48:10.169Z,1018.2
2023-11-23T03:49:11.218Z,1018.3
2023-11-23T03:50:12.418Z,1018.2
2023-11-23T03:51:13.705Z,1018.3
2023-11-23T03:52:14.875Z,1018.3
2023-11-23T03:53:16.121Z,1018.2
2023-11-23T03:54:17.519Z,1018.3
2023-11-23T03:55:18.789Z,1018.2
2023-11-23T03:56:20.084Z,1018.2
2023-11-23T03:57:21.250Z,1018.2
2023-11-23T03:58:22.476Z,1018.1
2023-11-23T03:59:23.668Z,1018.2
2023-11-23T04:00:24.879Z,1018.1
2023-11-23T04:01:26.115Z,1018.2
2023-11-23T04:02:27.323Z,1018.1
2023-11-23T04:03:28.578Z,1018.1
2023-11-23T04:04:29.881Z,1018.1
2023-11-23T04:05:31.114Z,1018
2023-11-23T04:06:32.327Z,1018.1
2023-11-23T04:07:33.544Z,1018
2023-11-23T04:08:34.776Z,1018
2023-11-23T04:09:35.990Z,1018
2023-11-23T04:10:37.226Z,1018.1
2023-11-23T04:11:38.457Z,1018
2023-11-23T04:12:39.702Z,1018.1
2023-11-23T04:13:40.932Z,1018
2023-11-23T04:14:42.278Z,1018
2023-11-23T04:15:43.440Z,1018
2023-11-23T04:16:44.761Z,1018
2023-11-23T04:17:46.059Z,1018
2023-11-23T04:18:47.261Z,1018
2023-11-23T04:19:48.386Z,1018
2023-11-23T04:20:49.709Z,1018
2023-11-23T04:21:50.843Z,1018
2023-11-23T04:22:52.052Z,1017.9
2023-11-23T04:23:53.376Z,1017.9
2023-11-23T04:24:54.644Z,1017.9
2023-11-23T04:25:55.903Z,1018
2023-11-23T04:26:57.103Z,1018
2023-11-23T04:27:58.300Z,1018
2023-11-23T04:28:59.525Z,1017.9
2023-11-23T04:30:00.790Z,1017.9
2023-11-23T04:31:01.962Z,1017.9
2023-11-23T04:32:03.241Z,1017.9
2023-11-23T04:33:04.544Z,1017.9
2023-11-23T04:34:06.002Z,1017.9
2023-11-23T04:35:07.095Z,1017.9
2023-11-23T04:36:08.351Z,1017.9
2023-11-23T04:37:09.611Z,1017.9
2023-11-23T04:38:11.221Z,1017.9
2023-11-23T04:39:12.617Z,1017.9
2023-11-23T04:40:13.816Z,1017.9
2023-11-23T04:41:15.019Z,1017.9
2023-11-23T04:42:16.303Z,1017.9
2023-11-23T04:43:17.557Z,1017.9
2023-11-23T04:44:18.984Z,1017.9
2023-11-23T04:45:20.265Z,1017.9
2023-11-23T04:46:21.496Z,1017.9
2023-11-23T04:47:22.755Z,1017.9
2023-11-23T04:48:24.134Z,1017.9
2023-11-23T04:49:25.237Z,1017.9
2023-11-23T04:50:26.456Z,1017.9
2023-11-23T04:51:27.696Z,1017.9
2023-11-23T04:52:29.026Z,1017.8
2023-11-23T04:53:30.225Z,1017.9
2023-11-23T04:54:31.537Z,1017.8
2023-11-23T04:55:32.741Z,1017.9
2023-11-23T04:56:34.034Z,1017.9
2023-11-23T04:57:35.216Z,1017.9
2023-11-23T04:58:36.410Z,1017.9
2023-11-23T04:59:37.618Z,1017.9
2023-11-23T05:00:38.880Z,1017.8
2023-11-23T05:01:40.147Z,1017.8
2023-11-23T05:02:41.353Z,1017.8
2023-11-23T05:03:42.784Z,1017.8
2023-11-23T05:04:43.948Z,1017.8
2023-11-23T05:05:45.225Z,1017.8
2023-11-23T05:06:46.461Z,1017.7
2023-11-23T05:07:47.681Z,1017.7
2023-11-23T05:08:48.916Z,1017.7
2023-11-23T05:09:50.140Z,1017.8
2023-11-23T05:10:51.639Z,1017.7
2023-11-23T05:11:53.072Z,1017.7
2023-11-23T05:12:54.346Z,1017.7
2023-11-23T05:13:55.602Z,1017.7
2023-11-23T05:14:56.990Z,1017.7
2023-11-23T05:15:58.183Z,1017.7
2023-11-23T05:16:59.522Z,1017.7
2023-11-23T05:18:00.870Z,1017.7
2023-11-23T05:19:02.028Z,1017.7
2023-11-23T05:20:03.269Z,1017.6
2023-11-23T05:21:04.564Z,1017.7
2023-11-23T05:22:05.767Z,1017.6
2023-11-23T05:23:06.946Z,1017.6
2023-11-23T05:24:08.263Z,1017.7
2023-11-23T05:25:09.497Z,1017.7
2023-11-23T05:26:10.682Z,1017.7
2023-11-23T05:27:14.681Z,1017.7
2023-11-23T05:28:15.878Z,1017.7
2023-11-23T05:29:17.098Z,1017.8
2023-11-23T05:30:18.332Z,1017.7
2023-11-23T05:31:19.647Z,1017.8
2023-11-23T05:32:20.781Z,1017.8
2023-11-23T05:33:24.827Z,1017.7
2023-11-23T05:34:23.381Z,1017.8
2023-11-23T05:35:24.594Z,1017.7
2023-11-23T05:36:25.867Z,1017.7
2023-11-23T05:37:27.117Z,1017.7
2023-11-23T05:38:28.516Z,1017.7
2023-11-23T05:39:29.825Z,1017.7
2023-11-23T05:41:33.020Z,1017.7
2023-11-23T05:42:34.363Z,1017.8
2023-11-23T05:43:35.593Z,1017.7
2023-11-23T05:44:37.016Z,1017.7
2023-11-23T05:45:41.364Z,1017.8
2023-11-23T05:46:45.280Z,1017.7
2023-11-23T05:47:46.610Z,1017.8
2023-11-23T05:48:47.924Z,1017.7
2023-11-23T05:49:49.226Z,1017.7
2023-11-23T05:50:50.448Z,1017.8
2023-11-23T05:51:51.611Z,1017.8
2023-11-23T05:52:52.882Z,1017.8
2023-11-23T05:53:54.112Z,1017.7
2023-11-23T05:54:55.432Z,1017.8
2023-11-23T05:55:56.768Z,1017.8
2023-11-23T05:56:58.131Z,1017.7
2023-11-23T05:57:59.328Z,1017.7
2023-11-23T05:59:00.572Z,1017.8
2023-11-23T06:00:01.828Z,1017.7
2023-11-23T06:01:09.571Z,1017.7
2023-11-23T06:02:08.728Z,1017.7
2023-11-23T06:03:10.030Z,1017.7
2023-11-23T06:04:11.599Z,1017.7
2023-11-23T06:05:12.602Z,1017.8
2023-11-23T06:06:13.822Z,1017.8
2023-11-23T06:07:15.007Z,1017.8
2023-11-23T06:08:16.252Z,1017.8
2023-11-23T06:09:17.528Z,1017.8
2023-11-23T06:10:18.798Z,1017.8
2023-11-23T06:11:20.115Z,1017.8
2023-11-23T06:12:21.348Z,1017.8
2023-11-23T06:13:22.539Z,1017.7
2023-11-23T06:14:23.827Z,1017.7
2023-11-23T06:15:25.274Z,1017.7
2023-11-23T06:16:26.596Z,1017.7
2023-11-23T06:17:27.787Z,1017.7
2023-11-23T06:18:29.075Z,1017.7
2023-11-23T06:19:30.291Z,1017.7
2023-11-23T06:20:31.561Z,1017.7
2023-11-23T06:21:32.830Z,1017.6
2023-11-23T06:22:34.024Z,1017.6
2023-11-23T06:23:35.348Z,1017.6
2023-11-23T06:24:36.611Z,1017.6
2023-11-23T06:25:37.956Z,1017.6
2023-11-23T06:26:39.195Z,1017.6
2023-11-23T06:27:40.458Z,1017.7
2023-11-23T06:28:41.695Z,1017.7
2023-11-23T06:29:42.968Z,1017.6
2023-11-23T06:30:44.412Z,1017.6
2023-11-23T06:31:45.487Z,1017.6
2023-11-23T06:32:46.702Z,1017.7
2023-11-23T06:33:48.031Z,1017.7
2023-11-23T06:34:49.468Z,1017.7
2023-11-23T06:35:51.136Z,1017.6
2023-11-23T06:36:52.406Z,1017.6
2023-11-23T06:37:53.679Z,1017.6
2023-11-23T06:38:54.949Z,1017.5
2023-11-23T06:39:57.340Z,1017.5
2023-11-23T06:40:57.416Z,1017.6
2023-11-23T06:41:58.692Z,1017.5
2023-11-23T06:42:59.975Z,1017.6
2023-11-23T06:44:01.410Z,1017.5
2023-11-23T06:45:02.722Z,1017.5
2023-11-23T06:46:03.984Z,1017.5
2023-11-23T06:47:05.223Z,1017.5
2023-11-23T06:48:06.553Z,1017.5
2023-11-23T06:49:08.056Z,1017.5
2023-11-23T06:50:08.971Z,1017.5
2023-11-23T06:51:10.440Z,1017.5
2023-11-23T06:52:11.644Z,1017.5
2023-11-23T06:53:12.871Z,1017.4
2023-11-23T06:54:14.093Z,1017.5
2023-11-23T06:55:20.213Z,1017.5
2023-11-23T06:56:21.648Z,1017.5
2023-11-23T06:57:23.160Z,1017.5
2023-11-23T06:58:24.410Z,1017.5
2023-11-23T06:59:25.732Z,1017.5
2023-11-23T07:00:27.284Z,1017.5
2023-11-23T07:01:28.659Z,1017.4
2023-11-23T07:02:30.128Z,1017.4
2023-11-23T07:03:31.298Z,1017.4
2023-11-23T07:04:32.546Z,1017.4
2023-11-23T07:05:33.760Z,1017.3
2023-11-23T07:06:35.261Z,1017.3
2023-11-23T07:07:36.561Z,1017.2
2023-11-23T07:08:37.794Z,1017.3
2023-11-23T07:09:39.006Z,1017.2
2023-11-23T07:10:40.301Z,1017.2
2023-11-23T07:11:41.531Z,1017.3
2023-11-23T07:12:42.712Z,1017.3
2023-11-23T07:13:43.927Z,1017.2
2023-11-23T07:14:45.159Z,1017.2
2023-11-23T07:15:46.399Z,1017.3
2023-11-23T07:16:47.897Z,1017.3
2023-11-23T07:17:49.323Z,1017.3
2023-11-23T07:18:50.324Z,1017.2
2023-11-23T07:19:51.553Z,1017.3
2023-11-23T07:20:52.909Z,1017.2
2023-11-23T07:21:54.140Z,1017.3
2023-11-23T07:22:55.510Z,1017.3
2023-11-23T07:23:56.843Z,1017.2
2023-11-23T07:24:58.075Z,1017.2
2023-11-23T07:25:59.423Z,1017.2
2023-11-23T07:27:00.705Z,1017.2
2023-11-23T07:28:01.969Z,1017.2
2023-11-23T07:29:03.246Z,1017.2
2023-11-23T07:30:09.556Z,1017.2
2023-11-23T07:31:11.110Z,1017.2
2023-11-23T07:32:12.383Z,1017.2
2023-11-23T07:33:13.750Z,1017.1
2023-11-23T07:34:15.116Z,1017.1
2023-11-23T07:35:21.250Z,1017.1
2023-11-23T07:36:22.585Z,1017.1
2023-11-23T07:37:23.816Z,1017.1
2023-11-23T07:38:25.109Z,1017.1
2023-11-23T07:39:26.607Z,1017
2023-11-23T07:40:27.812Z,1017.1
2023-11-23T07:41:29.209Z,1017.1
2023-11-23T07:42:30.521Z,1017.1
2023-11-23T07:43:31.706Z,1017.1
2023-11-23T07:44:32.966Z,1017.1
2023-11-23T07:45:34.409Z,1017.1
2023-11-23T07:46:35.689Z,1017.1
2023-11-23T07:47:37.032Z,1017.1
2023-11-23T07:48:38.306Z,1017.2
2023-11-23T07:49:39.598Z,1017.2
2023-11-23T07:50:40.862Z,1017.1
2023-11-23T07:51:42.080Z,1017.1
2023-11-23T07:52:43.343Z,1017.1
2023-11-23T07:53:44.807Z,1017.2
2023-11-23T07:54:46.120Z,1017.1
2023-11-23T07:55:47.358Z,1017.2
2023-11-23T07:56:48.604Z,1017.2
2023-11-23T07:57:49.987Z,1017.2
2023-11-23T07:58:51.109Z,1017.2
2023-11-23T07:59:52.384Z,1017.2
2023-11-23T08:00:53.567Z,1017.1
2023-11-23T08:01:54.885Z,1017.1
2023-11-23T08:02:56.284Z,1017.1
2023-11-23T08:03:57.775Z,1017.1
2023-11-23T08:04:58.913Z,1017
2023-11-23T08:06:00.470Z,1017
2023-11-23T08:07:01.589Z,1017
2023-11-23T08:08:03.073Z,1017
2023-11-23T08:09:04.447Z,1017
2023-11-23T08:10:05.881Z,1017
2023-11-23T08:11:07.121Z,1017
2023-11-23T08:12:08.359Z,1017
2023-11-23T08:13:09.609Z,1016.9
2023-11-23T08:14:10.848Z,1016.9
2023-11-23T08:15:12.212Z,1017
2023-11-23T08:16:13.588Z,1017
2023-11-23T08:17:14.850Z,1017
2023-11-23T08:18:16.222Z,1017
2023-11-23T08:19:17.515Z,1017
2023-11-23T08:20:18.755Z,1017
2023-11-23T08:21:20.104Z,1017
2023-11-23T08:22:21.317Z,1017
2023-11-23T08:23:22.676Z,1016.9
2023-11-23T08:24:23.928Z,1016.9
2023-11-23T08:25:25.106Z,1016.8
2023-11-23T08:26:26.345Z,1016.8
2023-11-23T08:27:27.623Z,1016.9
2023-11-23T08:28:28.765Z,1016.9
2023-11-23T08:29:30.001Z,1016.9
2023-11-23T08:30:31.247Z,1016.8
2023-11-23T08:31:32.615Z,1016.8
2023-11-23T08:32:33.904Z,1016.8
2023-11-23T08:33:35.303Z,1016.8
2023-11-23T08:34:36.488Z,1016.8
2023-11-23T08:35:37.704Z,1016.7
2023-11-23T08:36:39.000Z,1016.8
2023-11-23T08:37:40.197Z,1016.7
2023-11-23T08:38:41.489Z,1016.7
2023-11-23T08:39:42.873Z,1016.7
2023-11-23T08:40:44.067Z,1016.7
2023-11-23T08:41:45.314Z,1016.7
2023-11-23T08:42:46.633Z,1016.7
2023-11-23T08:43:47.888Z,1016.8
2023-11-23T08:44:49.137Z,1016.7
2023-11-23T08:45:50.413Z,1016.8
2023-11-23T08:46:51.653Z,1016.7
2023-11-23T08:47:53.013Z,1016.8
2023-11-23T08:48:54.188Z,1016.8
2023-11-23T08:49:55.407Z,1016.8
2023-11-23T08:50:56.641Z,1016.8
2023-11-23T08:51:57.880Z,1016.8
2023-11-23T08:52:59.196Z,1016.8
2023-11-23T08:54:00.506Z,1016.8
2023-11-23T08:55:01.757Z,1016.8
2023-11-23T08:56:02.954Z,1016.7
2023-11-23T08:57:04.261Z,1016.7
2023-11-23T08:58:05.488Z,1016.7
2023-11-23T08:59:06.734Z,1016.8
2023-11-23T09:00:08.145Z,1016.8
2023-11-23T09:01:09.453Z,1016.7
2023-11-23T09:02:16.663Z,1016.7
2023-11-23T09:03:11.956Z,1016.8
2023-11-23T09:04:13.309Z,1016.7
2023-11-23T09:05:14.518Z,1016.7
2023-11-23T09:06:15.781Z,1016.7
2023-11-23T09:07:16.992Z,1016.8
2023-11-23T09:08:18.113Z,1016.7
2023-11-23T09:09:20.006Z,1016.7
2023-11-23T09:10:20.806Z,1016.8
2023-11-23T09:11:22.017Z,1016.7
2023-11-23T09:12:23.314Z,1016.7
2023-11-23T09:13:24.462Z,1016.7
2023-11-23T09:14:25.824Z,1016.7
2023-11-23T09:15:27.077Z,1016.7
2023-11-23T09:16:28.308Z,1016.7
2023-11-23T09:17:29.537Z,1016.7
2023-11-23T09:18:30.877Z,1016.6
2023-11-23T09:19:32.088Z,1016.7
2023-11-23T09:20:33.213Z,1016.6
2023-11-23T09:21:34.514Z,1016.7
2023-11-23T09:22:35.703Z,1016.8
2023-11-23T09:23:36.929Z,1016.7
2023-11-23T09:24:38.304Z,1016.7
2023-11-23T09:25:39.579Z,1016.8
2023-11-23T09:26:40.798Z,1016.7
2023-11-23T09:27:42.119Z,1016.8
2023-11-23T09:28:43.317Z,1016.7
2023-11-23T09:29:44.452Z,1016.7
2023-11-23T09:30:45.664Z,1016.7
2023-11-23T09:31:46.950Z,1016.7
2023-11-23T09:32:48.172Z,1016.7
2023-11-23T09:33:49.470Z,1016.7
2023-11-23T09:34:50.748Z,1016.7
2023-11-23T09:35:51.958Z,1016.8
2023-11-23T09:36:53.179Z,1016.7
2023-11-23T09:37:54.400Z,1016.7
2023-11-23T09:38:55.731Z,1016.7
2023-11-23T09:39:56.842Z,1016.7
2023-11-23T09:40:58.075Z,1016.8
2023-11-23T09:41:59.629Z,1016.8
2023-11-23T09:43:00.779Z,1016.7
2023-11-23T09:44:02.044Z,1016.7
2023-11-23T09:45:03.565Z,1016.8
2023-11-23T09:46:04.856Z,1016.8
2023-11-23T09:47:06.036Z,1016.7
2023-11-23T09:48:07.352Z,1016.7
2023-11-23T09:49:08.712Z,1016.7
2023-11-23T09:50:09.912Z,1016.7
2023-11-23T09:51:11.214Z,1016.7
2023-11-23T09:52:12.342Z,1016.7
2023-11-23T09:53:13.533Z,1016.7
2023-11-23T09:54:14.824Z,1016.7
2023-11-23T09:55:16.135Z,1016.6
2023-11-23T09:56:17.356Z,1016.6
2023-11-23T09:57:18.605Z,1016.6
2023-11-23T09:58:19.789Z,1016.6
2023-11-23T09:59:21.007Z,1016.5
2023-11-23T10:00:22.459Z,1016.5
2023-11-23T10:01:23.593Z,1016.4
2023-11-23T10:02:24.860Z,1016.4
2023-11-23T10:03:26.049Z,1016.3
2023-11-23T10:04:27.236Z,1016.3
2023-11-23T10:05:28.543Z,1016.3
2023-11-23T10:06:29.778Z,1016.3
2023-11-23T10:07:30.991Z,1016.3
2023-11-23T10:08:34.567Z,1016.3
2023-11-23T10:09:33.580Z,1016.3
2023-11-23T10:10:34.754Z,1016.2
2023-11-23T10:11:36.033Z,1016.3
2023-11-23T10:12:37.288Z,1016.2
2023-11-23T10:13:38.490Z,1016.3
2023-11-23T10:14:39.758Z,1016.2
2023-11-23T10:15:41.100Z,1016.2
2023-11-23T10:16:42.293Z,1016.2
2023-11-23T10:17:43.641Z,1016.2
2023-11-23T10:18:44.836Z,1016.2
2023-11-23T10:19:45.924Z,1016.2
2023-11-23T10:20:47.129Z,1016.1
2023-11-23T10:21:48.367Z,1016.1
2023-11-23T10:22:49.729Z,1016.1
2023-11-23T10:23:50.844Z,1016
2023-11-23T10:24:52.074Z,1016.1
2023-11-23T10:25:53.482Z,1016
2023-11-23T10:26:54.914Z,1016
2023-11-23T10:27:56.010Z,1016
2023-11-23T10:28:57.239Z,1016
2023-11-23T10:29:58.490Z,1015.9
2023-11-23T10:30:59.714Z,1015.8
2023-11-23T10:32:01.386Z,1015.8
2023-11-23T10:33:02.263Z,1015.7
2023-11-23T10:34:03.430Z,1015.8
2023-11-23T10:35:04.618Z,1015.7
2023-11-23T10:36:06.075Z,1015.7
2023-11-23T10:37:07.331Z,1015.7
2023-11-23T10:38:08.516Z,1015.7
2023-11-23T10:39:09.767Z,1015.8
2023-11-23T10:40:13.155Z,1015.9
2023-11-23T10:41:12.170Z,1015.9
2023-11-23T10:42:13.444Z,1015.9
2023-11-23T10:43:14.586Z,1015.9
2023-11-23T10:44:15.810Z,1015.9
2023-11-23T10:45:17.299Z,1015.8
2023-11-23T10:46:18.636Z,1015.9
2023-11-23T10:47:19.852Z,1015.9
2023-11-23T10:48:21.139Z,1015.9
2023-11-23T10:49:22.413Z,1015.8
2023-11-23T10:50:23.603Z,1015.8
2023-11-23T10:51:24.839Z,1015.7
2023-11-23T10:52:26.046Z,1015.7
2023-11-23T10:53:27.362Z,1015.7
2023-11-23T10:54:28.623Z,1015.7
2023-11-23T10:55:30.050Z,1015.5
2023-11-23T10:56:31.377Z,1015.6
2023-11-23T10:57:32.765Z,1015.6
2023-11-23T10:58:33.975Z,1015.6
2023-11-23T10:59:35.261Z,1015.7
2023-11-23T11:00:36.875Z,1015.7
2023-11-23T11:01:38.128Z,1015.7
2023-11-23T11:02:39.248Z,1015.7
2023-11-23T11:03:40.553Z,1015.7
2023-11-23T11:04:41.679Z,1015.6
2023-11-23T11:05:42.848Z,1015.7
2023-11-23T11:06:44.312Z,1015.7
2023-11-23T11:07:45.552Z,1015.7
2023-11-23T11:08:46.772Z,1015.7
2023-11-23T11:09:48.025Z,1015.7
2023-11-23T11:10:49.241Z,1015.7
2023-11-23T11:11:50.449Z,1015.7
2023-11-23T11:12:51.683Z,1015.7
2023-11-23T11:13:52.937Z,1015.6
2023-11-23T11:14:54.178Z,1015.5
2023-11-23T11:15:55.452Z,1015.5
2023-11-23T11:16:56.809Z,1015.4
2023-11-23T11:17:58.252Z,1015.4
2023-11-23T11:18:59.382Z,1015.4
2023-11-23T11:20:00.815Z,1015.2
2023-11-23T11:21:02.368Z,1015.2
2023-11-23T11:22:03.589Z,1015.2
2023-11-23T11:23:04.921Z,1015.2
2023-11-23T11:24:06.209Z,1015.1
2023-11-23T11:25:07.430Z,1015.1
2023-11-23T11:26:08.751Z,1015.1
2023-11-23T11:27:10.106Z,1015.1
2023-11-23T11:28:11.293Z,1015.1
2023-11-23T11:29:12.500Z,1015
2023-11-23T11:30:13.785Z,1015.1
2023-11-23T11:31:15.298Z,1015
2023-11-23T11:32:16.274Z,1015
2023-11-23T11:33:17.717Z,1015
2023-11-23T11:34:18.840Z,1015
2023-11-23T11:35:20.389Z,1015
2023-11-23T11:36:21.489Z,1015
2023-11-23T11:37:22.844Z,1015.1
2023-11-23T11:38:24.128Z,1015.1
2023-11-23T11:39:25.451Z,1015.1
2023-11-23T11:40:26.665Z,1015
2023-11-23T11:41:28.641Z,1015.1
2023-11-23T11:42:29.253Z,1015.1
2023-11-23T11:43:30.463Z,1015
2023-11-23T11:44:31.674Z,1014.9
2023-11-23T11:45:32.968Z,1014.9
2023-11-23T11:46:34.197Z,1014.9
2023-11-23T11:47:35.498Z,1014.8
2023-11-23T11:48:36.867Z,1014.9
2023-11-23T11:49:38.098Z,1014.9
2023-11-23T11:50:39.303Z,1014.9
2023-11-23T11:51:40.750Z,1014.9
2023-11-23T11:52:42.187Z,1014.9
2023-11-23T11:53:43.452Z,1014.9
2023-11-23T11:54:44.872Z,1014.9
2023-11-23T11:55:46.080Z,1014.9
2023-11-23T11:56:47.349Z,1014.9
2023-11-23T11:57:48.711Z,1014.7
2023-11-23T11:58:49.965Z,1014.8
2023-11-23T11:59:51.225Z,1014.7
2023-11-23T12:00:52.947Z,1014.7
2023-11-23T12:01:54.362Z,1014.7
2023-11-23T12:02:55.747Z,1014.7
2023-11-23T12:03:57.092Z,1014.7
2023-11-23T12:04:58.467Z,1014.7
2023-11-23T12:05:59.807Z,1014.6
2023-11-23T12:07:01.085Z,1014.7
2023-11-23T12:08:02.958Z,1014.5
2023-11-23T12:09:04.492Z,1014.6
2023-11-23T12:10:09.429Z,1014.6
2023-11-23T12:11:11.208Z,1014.6
2023-11-23T12:12:12.555Z,1014.6
2023-11-23T12:13:13.757Z,1014.5
2023-11-23T12:14:15.183Z,1014.5
2023-11-23T12:15:16.549Z,1014.5
2023-11-23T12:16:17.748Z,1014.6
2023-11-23T12:17:18.964Z,1014.5
2023-11-23T12:18:20.358Z,1014.4
2023-11-23T12:19:21.600Z,1014.4
2023-11-23T12:20:22.827Z,1014.4
2023-11-23T12:21:24.332Z,1014.4
2023-11-23T12:22:25.535Z,1014.4
2023-11-23T12:23:27.660Z,1014.4
2023-11-23T12:24:27.996Z,1014.4
2023-11-23T12:25:29.259Z,1014.4
2023-11-23T12:26:30.510Z,1014.3
2023-11-23T12:27:31.841Z,1014.2
2023-11-23T12:28:33.071Z,1014.2
2023-11-23T12:29:34.329Z,1014.2
2023-11-23T12:30:35.705Z,1014.2
2023-11-23T12:31:37.040Z,1014.1
2023-11-23T12:32:38.379Z,1014.1
2023-11-23T12:33:39.577Z,1014.1
2023-11-23T12:34:40.729Z,1014.1
2023-11-23T12:35:41.957Z,1014.1
2023-11-23T12:36:43.193Z,1014.1
2023-11-23T12:37:44.401Z,1014.1
2023-11-23T12:38:45.737Z,1014.1
2023-11-23T12:39:47.069Z,1014.1
2023-11-23T12:40:48.250Z,1014.1
2023-11-23T12:41:53.008Z,1014.1
2023-11-23T12:42:50.952Z,1014.1
2023-11-23T12:43:52.229Z,1014
2023-11-23T12:44:53.482Z,1014
2023-11-23T12:45:54.849Z,1014
2023-11-23T12:46:56.122Z,1013.9
2023-11-23T12:47:57.367Z,1013.9
2023-11-23T12:48:58.688Z,1013.9
2023-11-23T12:49:59.885Z,1013.9
2023-11-23T12:51:01.264Z,1013.8